| time (UTC) | temp F | wind direction | speed MPH | gust MPH | rain 1hr in | rain 24hr in | rain mn in | humidity % | barometer mb |
| 20260903234521 | 64 | 110 | 0.0 | 0.0 | 0.00 | 0.24 | 0.24 | 96 | 1015.3 |
| 20260903233020 | 64 | 110 | 0.0 | 0.0 | 0.00 | 0.24 | 0.24 | 96 | 1015.3 |
| 20260903231520 | 64 | 110 | 0.0 | 0.0 | 0.00 | 0.24 | 0.24 | 95 | 1015.2 |
| 20260903230024 | 64 | 110 | 0.0 | 0.0 | 0.00 | 0.24 | 0.24 | 95 | 1015.4 |
| 20260903224518 | 64 | 110 | 0.0 | 0.0 | 0.00 | 0.24 | 0.24 | 95 | 1015.4 |
| 20260903223023 | 65 | 110 | 0.0 | 0.0 | 0.00 | 0.24 | 0.24 | 94 | 1015.4 |
| 20260903221521 | 65 | 110 | 0.0 | 0.0 | 0.00 | 0.24 | 0.24 | 94 | 1015.5 |
| 20260903220025 | 65 | 110 | 0.0 | 0.0 | 0.00 | 0.24 | 0.24 | 94 | 1015.5 |
| 20260903214516 | 65 | 110 | 0.0 | 0.0 | 0.00 | 0.24 | 0.24 | 94 | 1015.3 |
| 20260903213015 | 65 | 110 | 0.0 | 0.0 | 0.00 | 0.24 | 0.24 | 93 | 1015.4 |
| 20260903211514 | 65 | 110 | 0.0 | 0.0 | 0.00 | 0.24 | 0.24 | 92 | 1015.4 |
| 20260903210013 | 65 | 110 | 0.0 | 1.0 | 0.00 | 0.24 | 0.24 | 91 | 1015.4 |
| 20260903204512 | 66 | 110 | 0.0 | 1.0 | 0.00 | 0.24 | 0.24 | 91 | 1015.6 |
| 20260903203021 | 66 | 110 | 0.0 | 1.0 | 0.00 | 0.24 | 0.24 | 89 | 1015.5 |
| 20260903201510 | 66 | 110 | 0.0 | 1.0 | 0.00 | 0.24 | 0.24 | 89 | 1015.7 |
| 20260903200023 | 66 | 142 | 0.0 | 1.0 | 0.00 | 0.24 | 0.24 | 90 | 1015.8 |
| 20260903194517 | 66 | 210 | 0.0 | 1.0 | 0.00 | 0.24 | 0.24 | 91 | 1016.1 |
| 20260903193004 | 66 | 142 | 0.0 | 0.0 | 0.00 | 0.24 | 0.24 | 90 | 1016.3 |
| 20260903191502 | 66 | 149 | 0.0 | 2.0 | 0.00 | 0.24 | 0.24 | 91 | 1016.4 |
| 20260903190058 | 65 | 151 | 0.0 | 2.0 | 0.00 | 0.24 | 0.24 | 91 | 1016.5 |
| 20260903184556 | 65 | 161 | 1.0 | 3.0 | 0.00 | 0.24 | 0.24 | 92 | 1016.6 |
| 20260903183115 | 64 | 315 | 0.0 | 2.0 | 0.00 | 0.24 | 0.24 | 93 | 1016.9 |
| 20260903181608 | 64 | 132 | 0.0 | 2.0 | 0.00 | 0.24 | 0.24 | 94 | 1016.9 |
| 20260903180052 | 64 | 238 | 0.0 | 4.0 | 0.00 | 0.24 | 0.24 | 94 | 1016.9 |
| 20260903174549 | 63 | 102 | 0.0 | 2.0 | 0.00 | 0.24 | 0.24 | 94 | 1016.9 |
| 20260903173051 | 63 | 51 | 1.0 | 2.0 | 0.00 | 0.24 | 0.24 | 95 | 1017.1 |
| 20260903171548 | 63 | 212 | 0.0 | 2.0 | 0.00 | 0.24 | 0.24 | 96 | 1017.1 |
| 20260903170044 | 62 | 122 | 0.0 | 3.0 | 0.00 | 0.24 | 0.24 | 96 | 1017.2 |
| 20260903164543 | 62 | 116 | 0.0 | 2.0 | 0.00 | 0.24 | 0.24 | 96 | 1017.0 |
| 20260903163042 | 62 | 125 | 1.0 | 6.0 | 0.00 | 0.24 | 0.24 | 96 | 1017.5 |
| 20260903161558 | 62 | 141 | 0.0 | 4.0 | 0.00 | 0.24 | 0.24 | 96 | 1017.6 |
| 20260903160037 | 62 | 133 | 0.0 | 4.0 | 0.00 | 0.24 | 0.24 | 96 | 1017.7 |
| 20260903154536 | 62 | 186 | 0.0 | 2.0 | 0.00 | 0.24 | 0.24 | 96 | 1018.1 |
| 20260903153034 | 62 | 157 | 0.0 | 2.0 | 0.00 | 0.24 | 0.24 | 96 | 1018.1 |
| 20260903151532 | 61 | 203 | 0.0 | 2.0 | 0.00 | 0.24 | 0.24 | 97 | 1018.3 |
| 20260903150031 | 61 | 126 | 0.0 | 2.0 | 0.00 | 0.24 | 0.24 | 97 | 1018.5 |
| 20260903144529 | 61 | 204 | 0.0 | 2.0 | 0.00 | 0.24 | 0.24 | 97 | 1018.5 |
| 20260903143037 | 60 | 88 | 0.0 | 3.0 | 0.00 | 0.24 | 0.24 | 97 | 1018.5 |
| 20260903141526 | 60 | 152 | 1.0 | 3.0 | 0.00 | 0.24 | 0.24 | 97 | 1018.7 |
| 20260903140025 | 60 | 145 | 0.0 | 3.0 | 0.00 | 0.24 | 0.24 | 97 | 1018.8 |
| 20260903134527 | 60 | 164 | 1.0 | 4.0 | 0.00 | 0.24 | 0.24 | 97 | 1018.8 |
| 20260903133023 | 60 | 78 | 0.0 | 4.0 | 0.00 | 0.24 | 0.24 | 97 | 1018.9 |
| 20260903131524 | 60 | 136 | 0.0 | 1.0 | 0.01 | 0.24 | 0.24 | 98 | 1019.0 |
| 20260903130021 | 59 | 134 | 0.0 | 2.0 | 0.01 | 0.24 | 0.24 | 97 | 1019.0 |
| 20260903124534 | 60 | 139 | 0.0 | 1.0 | 0.01 | 0.24 | 0.24 | 98 | 1019.1 |
| 20260903123018 | 59 | 132 | 0.0 | 1.0 | 0.02 | 0.24 | 0.24 | 98 | 1019.1 |
| 20260903121536 | 59 | 113 | 0.0 | 0.0 | 0.01 | 0.23 | 0.23 | 98 | 1019.6 |
| 20260903120017 | 59 | 113 | 0.0 | 2.0 | 0.01 | 0.23 | 0.23 | 98 | 1019.7 |
| 20260903114519 | 59 | 63 | 0.0 | 1.0 | 0.01 | 0.23 | 0.23 | 98 | 1019.8 |
| 20260903113019 | 59 | 63 | 0.0 | 0.0 | 0.00 | 0.22 | 0.22 | 98 | 1019.6 |
| 20260903111515 | 59 | 63 | 0.0 | 1.0 | 0.00 | 0.22 | 0.22 | 98 | 1019.5 |
| 20260903110016 | 59 | 63 | 0.0 | 2.0 | 0.00 | 0.22 | 0.22 | 98 | 1019.3 |
| 20260903104517 | 60 | 105 | 0.0 | 2.0 | 0.00 | 0.22 | 0.22 | 98 | 1019.5 |
| 20260903103014 | 60 | 101 | 0.0 | 1.0 | 0.00 | 0.22 | 0.22 | 98 | 1019.4 |
| 20260903101519 | 60 | 131 | 0.0 | 0.0 | 0.08 | 0.22 | 0.22 | 98 | 1019.5 |
| 20260903100021 | 60 | 131 | 0.0 | 1.0 | 0.15 | 0.22 | 0.22 | 98 | 1019.4 |
| 20260903094512 | 60 | 131 | 0.0 | 1.0 | 0.16 | 0.22 | 0.22 | 98 | 1019.3 |
| 20260903093010 | 60 | 131 | 0.0 | 1.0 | 0.15 | 0.21 | 0.21 | 98 | 1019.9 |
| 20260903091512 | 60 | 132 | 0.0 | 0.0 | 0.07 | 0.13 | 0.13 | 98 | 1020.2 |
| 20260903090008 | 60 | 132 | 0.0 | 0.0 | 0.01 | 0.07 | 0.07 | 97 | 1020.2 |
| 20260903084507 | 60 | 132 | 0.0 | 1.0 | 0.00 | 0.06 | 0.06 | 97 | 1020.1 |
| 20260903083008 | 60 | 132 | 0.0 | 0.0 | 0.01 | 0.06 | 0.06 | 97 | 1020.3 |
| 20260903081506 | 60 | 132 | 0.0 | 0.0 | 0.01 | 0.06 | 0.06 | 97 | 1019.8 |
| 20260903080005 | 59 | 132 | 0.0 | 1.0 | 0.04 | 0.06 | 0.06 | 97 | 1019.8 |
| 20260903074504 | 59 | 132 | 0.0 | 1.0 | 0.04 | 0.06 | 0.06 | 97 | 1020.1 |
| 20260903073001 | 59 | 132 | 0.0 | 1.0 | 0.04 | 0.05 | 0.05 | 97 | 1020.3 |
| 20260903071658 | 59 | 132 | 0.0 | 1.0 | 0.05 | 0.05 | 0.05 | 97 | 1020.6 |
| 20260903070053 | 59 | 130 | 0.0 | 1.0 | 0.02 | 0.02 | 0.02 | 97 | 1020.9 |
| 20260903064555 | 59 | 130 | 0.0 | 1.0 | 0.02 | 0.02 | 0.02 | 97 | 1021.2 |
| 20260903063050 | 59 | 130 | 0.0 | 1.0 | 0.01 | 0.01 | 0.01 | 96 | 1021.3 |
| 20260903061548 | 59 | 130 | 0.0 | 1.0 | 0.00 | 0.00 | 0.00 | 96 | 1021.5 |
| 20260903060048 | 59 | 112 | 0.0 | 1.0 | 0.00 | 0.00 | 0.00 | 96 | 1021.6 |
| 20260903054547 | 59 | 211 | 0.0 | 1.0 | 0.00 | 0.00 | 0.00 | 96 | 1021.7 |
| 20260903053047 | 59 | 211 | 0.0 | 1.0 | 0.00 | 0.00 | 0.00 | 95 | 1021.9 |
| 20260903051544 | 59 | 133 | 0.0 | 1.0 | 0.00 | 0.00 | 0.00 | 95 | 1022.0 |
| 20260903050044 | 59 | 155 | 0.0 | 1.0 | 0.00 | 0.00 | 0.00 | 95 | 1022.1 |
| 20260903044542 | 59 | 141 | 0.0 | 2.0 | 0.00 | 0.00 | 0.00 | 95 | 1022.0 |
| 20260903043051 | 59 | 119 | 0.0 | 1.0 | 0.00 | 0.00 | 0.00 | 94 | 1022.3 |
| 20260903041537 | 59 | 119 | 0.0 | 1.0 | 0.00 | 0.00 | 0.00 | 94 | 1023.0 |
| 20260903040035 | 59 | 118 | 0.0 | 1.0 | 0.00 | 0.00 | 0.00 | 94 | 1023.0 |
| 20260903034535 | 59 | 131 | 0.0 | 1.0 | 0.00 | 0.00 | 0.00 | 94 | 1023.1 |
| 20260903033033 | 59 | 132 | 0.0 | 1.0 | 0.00 | 0.00 | 0.00 | 93 | 1023.2 |
| 20260903031543 | 59 | 130 | 0.0 | 1.0 | 0.00 | 0.00 | 0.00 | 93 | 1023.4 |
| 20260903030033 | 59 | 108 | 0.0 | 1.0 | 0.00 | 0.00 | 0.00 | 93 | 1023.3 |
| 20260903024531 | 59 | 126 | 0.0 | 1.0 | 0.00 | 0.00 | 0.00 | 93 | 1023.3 |
| 20260903023035 | 59 | 122 | 0.0 | 4.0 | 0.00 | 0.00 | 0.00 | 92 | 1023.5 |
| 20260903021530 | 59 | 113 | 0.0 | 2.0 | 0.00 | 0.00 | 0.00 | 92 | 1023.8 |
| 20260903020038 | 59 | 163 | 0.0 | 2.0 | 0.00 | 0.00 | 0.00 | 93 | 1023.5 |
| 20260903014630 | 59 | 124 | 0.0 | 2.0 | 0.00 | 0.00 | 0.00 | 92 | 1023.5 |
| 20260903013029 | 59 | 125 | 0.0 | 3.0 | 0.00 | 0.00 | 0.00 | 92 | 1023.6 |
| 20260903011527 | 59 | 146 | 1.0 | 3.0 | 0.00 | 0.00 | 0.00 | 93 | 1023.5 |
| 20260903010026 | 59 | 98 | 0.0 | 2.0 | 0.00 | 0.00 | 0.00 | 93 | 1023.9 |
| 20260903004526 | 59 | 140 | 0.0 | 3.0 | 0.00 | 0.00 | 0.00 | 93 | 1023.4 |
| 20260903003026 | 59 | 133 | 0.0 | 3.0 | 0.00 | 0.00 | 0.00 | 92 | 1023.5 |
| 20260903001525 | 59 | 139 | 0.0 | 3.0 | 0.00 | 0.00 | 0.00 | 92 | 1023.5 |
| 20260903000027 | 60 | 96 | 0.0 | 2.0 | 0.00 | 0.00 | 0.00 | 90 | 1023.6 |